To NAV CANADA Home Page Login to a new session Search on AWWS site Feedback and Comments Disclaimer Vers la page française équivalente Tips FAQ What's new on the site To the Forecasts and Observations / NOTAM section To "File a Flight Plan" website Publications and other links Update of the User's profile FIC Telephone Numbers My Weather Data Folder Route Weather Data Regional Weather Data Local Weather Data To the Forecasts and Observations / NOTAM section
Request Generated 03/26/2015 at 23:41:53 UTC . Weather information available at that time is displayed.

METAR/TAF

LYNN LAKE/MB    (show WxCam)

METAR CYYL 262300Z AUTO 21005KT 180V240 9SM CLR M04/M15 A3017 RMK
SLP257=
METAR CYYL 262200Z AUTO 20008KT 9SM CLR M04/M18 A3020 RMK SLP265=
METAR CYYL 262100Z AUTO 20005KT 140V240 9SM CLR M04/M18 A3021 RMK
SLP270=

TAF CYYL 261838Z 2619/2707 20006KT P6SM SKC
RMK FCST BASED ON AUTO OBS. NXT FCST BY 270100Z=
Your time UTC time
Weather data provided by Environment Canada and NAV CANADA